sensor_id;sensor_type;location;lat;lon;timestamp;pressure;altitude;pressure_sealevel;temperature;humidity
27864;BME280;15980;51.092;13.916;2024-03-29T00:02:49;97192.03;;;6.72;70.60
27864;BME280;15980;51.092;13.916;2024-03-29T00:12:50;97196.06;;;6.78;70.40
27864;BME280;15980;51.092;13.916;2024-03-29T00:22:50;97210.22;;;6.68;70.16
27864;BME280;15980;51.092;13.916;2024-03-29T00:32:51;97209.09;;;6.69;69.65
27864;BME280;15980;51.092;13.916;2024-03-29T00:42:51;97234.59;;;6.77;69.58
27864;BME280;15980;51.092;13.916;2024-03-29T00:52:51;97227.81;;;6.71;69.66
27864;BME280;15980;51.092;13.916;2024-03-29T01:02:51;97241.44;;;6.55;70.18
27864;BME280;15980;51.092;13.916;2024-03-29T01:12:52;97242.97;;;6.40;70.40
27864;BME280;15980;51.092;13.916;2024-03-29T01:22:52;97261.19;;;6.24;71.15
27864;BME280;15980;51.092;13.916;2024-03-29T01:32:52;97274.19;;;6.15;71.94
27864;BME280;15980;51.092;13.916;2024-03-29T01:42:53;97270.31;;;6.16;72.06
27864;BME280;15980;51.092;13.916;2024-03-29T01:52:53;97279.59;;;6.43;70.30
27864;BME280;15980;51.092;13.916;2024-03-29T02:02:54;97266.22;;;6.66;69.10
27864;BME280;15980;51.092;13.916;2024-03-29T02:12:54;97260.53;;;6.43;69.40
27864;BME280;15980;51.092;13.916;2024-03-29T02:22:59;97259.97;;;6.21;70.90
27864;BME280;15980;51.092;13.916;2024-03-29T02:33:00;97244.03;;;5.95;70.85
27864;BME280;15980;51.092;13.916;2024-03-29T02:43:00;97251.44;;;5.83;72.74
27864;BME280;15980;51.092;13.916;2024-03-29T02:53:01;97264.63;;;5.68;74.68
27864;BME280;15980;51.092;13.916;2024-03-29T03:03:01;97259.06;;;5.53;75.29
27864;BME280;15980;51.092;13.916;2024-03-29T03:13:02;97271.00;;;5.36;76.17
27864;BME280;15980;51.092;13.916;2024-03-29T03:23:02;97272.00;;;5.56;75.69
27864;BME280;15980;51.092;13.916;2024-03-29T03:33:02;97279.91;;;5.73;74.58
27864;BME280;15980;51.092;13.916;2024-03-29T03:43:04;97283.44;;;5.74;75.29
27864;BME280;15980;51.092;13.916;2024-03-29T03:53:05;97265.41;;;5.69;75.35
27864;BME280;15980;51.092;13.916;2024-03-29T04:03:05;97265.06;;;5.58;75.68
27864;BME280;15980;51.092;13.916;2024-03-29T04:13:05;97255.78;;;5.59;75.83
27864;BME280;15980;51.092;13.916;2024-03-29T04:23:06;97263.25;;;5.62;75.46
27864;BME280;15980;51.092;13.916;2024-03-29T04:33:06;97263.13;;;5.71;76.21
27864;BME280;15980;51.092;13.916;2024-03-29T04:43:07;97253.53;;;6.02;75.04
27864;BME280;15980;51.092;13.916;2024-03-29T04:53:08;97242.00;;;5.92;74.73
27864;BME280;15980;51.092;13.916;2024-03-29T05:03:08;97241.69;;;5.82;75.88
27864;BME280;15980;51.092;13.916;2024-03-29T05:13:08;97241.63;;;6.06;75.99
27864;BME280;15980;51.092;13.916;2024-03-29T05:23:09;97231.59;;;6.66;74.13
27864;BME280;15980;51.092;13.916;2024-03-29T05:33:09;97253.22;;;7.22;72.30
27864;BME280;15980;51.092;13.916;2024-03-29T05:43:09;97248.91;;;7.37;71.18
27864;BME280;15980;51.092;13.916;2024-03-29T05:53:10;97247.84;;;7.41;70.43
27864;BME280;15980;51.092;13.916;2024-03-29T06:03:10;97278.81;;;7.49;70.82
27864;BME280;15980;51.092;13.916;2024-03-29T06:13:10;97291.41;;;7.53;70.45
27864;BME280;15980;51.092;13.916;2024-03-29T06:23:11;97293.38;;;7.72;69.42
27864;BME280;15980;51.092;13.916;2024-03-29T06:33:11;97299.22;;;8.06;68.83
27864;BME280;15980;51.092;13.916;2024-03-29T06:43:11;97315.81;;;8.16;68.34
27864;BME280;15980;51.092;13.916;2024-03-29T06:53:12;97336.59;;;8.21;68.08
27864;BME280;15980;51.092;13.916;2024-03-29T07:03:12;97346.59;;;8.48;67.02
27864;BME280;15980;51.092;13.916;2024-03-29T07:13:12;97341.94;;;8.68;66.43
27864;BME280;15980;51.092;13.916;2024-03-29T07:23:13;97334.84;;;8.87;64.88
27864;BME280;15980;51.092;13.916;2024-03-29T07:33:13;97350.59;;;9.12;63.65
27864;BME280;15980;51.092;13.916;2024-03-29T07:43:13;97346.22;;;9.31;62.35
27864;BME280;15980;51.092;13.916;2024-03-29T07:53:13;97332.09;;;9.74;61.29
27864;BME280;15980;51.092;13.916;2024-03-29T08:03:14;97341.81;;;10.21;58.88
27864;BME280;15980;51.092;13.916;2024-03-29T08:13:14;97369.19;;;10.48;57.62
27864;BME280;15980;51.092;13.916;2024-03-29T08:23:14;97375.75;;;11.40;56.65
27864;BME280;15980;51.092;13.916;2024-03-29T08:33:15;97399.38;;;11.48;54.79
27864;BME280;15980;51.092;13.916;2024-03-29T08:43:15;97400.34;;;11.70;54.13
27864;BME280;15980;51.092;13.916;2024-03-29T08:53:16;97421.13;;;11.68;53.44
27864;BME280;15980;51.092;13.916;2024-03-29T09:03:16;97383.78;;;12.04;55.40
27864;BME280;15980;51.092;13.916;2024-03-29T09:13:17;97355.66;;;13.08;53.56
27864;BME280;15980;51.092;13.916;2024-03-29T09:23:17;97335.97;;;14.55;48.58
27864;BME280;15980;51.092;13.916;2024-03-29T09:33:17;97308.44;;;15.25;44.99
27864;BME280;15980;51.092;13.916;2024-03-29T09:43:18;97318.97;;;14.67;43.02
27864;BME280;15980;51.092;13.916;2024-03-29T09:53:19;97270.41;;;14.84;43.94
27864;BME280;15980;51.092;13.916;2024-03-29T10:03:20;97236.53;;;15.32;44.09
27864;BME280;15980;51.092;13.916;2024-03-29T10:13:21;97231.56;;;15.64;41.75
27864;BME280;15980;51.092;13.916;2024-03-29T10:23:21;97241.88;;;15.53;41.43
27864;BME280;15980;51.092;13.916;2024-03-29T10:33:21;97233.06;;;16.10;41.41
27864;BME280;15980;51.092;13.916;2024-03-29T10:43:23;97217.81;;;16.29;40.79
27864;BME280;15980;51.092;13.916;2024-03-29T10:53:24;97198.59;;;16.79;40.34
27864;BME280;15980;51.092;13.916;2024-03-29T11:13:49;97181.69;;;17.24;39.32
27864;BME280;15980;51.092;13.916;2024-03-29T11:23:53;97183.34;;;17.45;40.30
27864;BME280;15980;51.092;13.916;2024-03-29T11:33:57;97198.75;;;17.22;40.01
27864;BME280;15980;51.092;13.916;2024-03-29T11:43:57;97186.66;;;17.36;39.73
27864;BME280;15980;51.092;13.916;2024-03-29T11:53:59;97203.91;;;17.20;39.22
27864;BME280;15980;51.092;13.916;2024-03-29T12:04:00;97214.28;;;16.89;40.06
27864;BME280;15980;51.092;13.916;2024-03-29T12:14:00;97207.47;;;16.67;39.70
27864;BME280;15980;51.092;13.916;2024-03-29T12:24:01;97210.69;;;16.62;39.91
27864;BME280;15980;51.092;13.916;2024-03-29T12:34:01;97231.38;;;16.84;41.09
27864;BME280;15980;51.092;13.916;2024-03-29T12:44:01;97223.34;;;16.93;41.22
27864;BME280;15980;51.092;13.916;2024-03-29T12:54:02;97223.84;;;17.12;42.97
27864;BME280;15980;51.092;13.916;2024-03-29T13:04:02;97224.63;;;17.39;41.66
27864;BME280;15980;51.092;13.916;2024-03-29T13:14:04;97237.78;;;17.08;42.33
27864;BME280;15980;51.092;13.916;2024-03-29T13:24:04;97199.75;;;17.32;40.28
27864;BME280;15980;51.092;13.916;2024-03-29T13:34:04;97189.25;;;16.97;41.06
27864;BME280;15980;51.092;13.916;2024-03-29T13:44:05;97175.44;;;16.66;40.21
27864;BME280;15980;51.092;13.916;2024-03-29T13:54:05;97178.94;;;16.70;41.19
27864;BME280;15980;51.092;13.916;2024-03-29T14:04:05;97161.81;;;16.79;39.98
27864;BME280;15980;51.092;13.916;2024-03-29T14:14:05;97146.22;;;16.61;40.19
27864;BME280;15980;51.092;13.916;2024-03-29T14:24:06;97139.34;;;16.73;40.63
27864;BME280;15980;51.092;13.916;2024-03-29T14:34:06;97140.38;;;16.56;41.23
27864;BME280;15980;51.092;13.916;2024-03-29T14:44:07;97151.13;;;16.50;41.25
27864;BME280;15980;51.092;13.916;2024-03-29T14:54:07;97134.66;;;16.40;43.21
27864;BME280;15980;51.092;13.916;2024-03-29T15:04:08;97123.59;;;16.09;44.03
27864;BME280;15980;51.092;13.916;2024-03-29T15:14:08;97124.31;;;15.83;44.19
27864;BME280;15980;51.092;13.916;2024-03-29T15:24:09;97141.53;;;15.60;44.32
27864;BME280;15980;51.092;13.916;2024-03-29T15:34:10;97133.09;;;15.33;45.11
27864;BME280;15980;51.092;13.916;2024-03-29T15:44:13;97144.28;;;15.19;45.85
27864;BME280;15980;51.092;13.916;2024-03-29T15:54:13;97153.06;;;15.06;47.14
27864;BME280;15980;51.092;13.916;2024-03-29T16:04:13;97155.53;;;14.94;49.53
27864;BME280;15980;51.092;13.916;2024-03-29T16:14:13;97165.84;;;14.86;52.45
27864;BME280;15980;51.092;13.916;2024-03-29T16:24:14;97170.19;;;14.87;51.65
27864;BME280;15980;51.092;13.916;2024-03-29T16:34:14;97187.22;;;14.75;55.28
27864;BME280;15980;51.092;13.916;2024-03-29T16:44:14;97191.59;;;14.69;56.04
27864;BME280;15980;51.092;13.916;2024-03-29T16:54:14;97191.75;;;14.33;54.76
27864;BME280;15980;51.092;13.916;2024-03-29T17:04:15;97192.56;;;14.23;53.68
27864;BME280;15980;51.092;13.916;2024-03-29T17:14:15;97182.88;;;13.83;58.96
27864;BME280;15980;51.092;13.916;2024-03-29T17:24:15;97190.03;;;13.48;60.57
27864;BME280;15980;51.092;13.916;2024-03-29T17:34:16;97198.31;;;13.24;59.51
27864;BME280;15980;51.092;13.916;2024-03-29T17:44:17;97204.97;;;13.12;58.92
27864;BME280;15980;51.092;13.916;2024-03-29T17:54:18;97208.09;;;12.96;60.28
27864;BME280;15980;51.092;13.916;2024-03-29T18:04:18;97197.06;;;12.82;63.23
27864;BME280;15980;51.092;13.916;2024-03-29T18:14:18;97192.34;;;12.61;62.95
27864;BME280;15980;51.092;13.916;2024-03-29T18:24:19;97215.06;;;12.40;62.24
27864;BME280;15980;51.092;13.916;2024-03-29T18:34:19;97216.97;;;12.22;62.80
27864;BME280;15980;51.092;13.916;2024-03-29T18:44:19;97232.56;;;12.00;61.42
27864;BME280;15980;51.092;13.916;2024-03-29T18:54:19;97232.94;;;11.99;60.62
27864;BME280;15980;51.092;13.916;2024-03-29T19:04:20;97232.66;;;11.56;63.38
27864;BME280;15980;51.092;13.916;2024-03-29T19:14:21;97217.97;;;11.30;64.46
27864;BME280;15980;51.092;13.916;2024-03-29T19:24:22;97216.84;;;11.35;64.75
27864;BME280;15980;51.092;13.916;2024-03-29T19:34:22;97221.72;;;11.63;62.78
27864;BME280;15980;51.092;13.916;2024-03-29T19:44:22;97212.69;;;11.66;63.43
27864;BME280;15980;51.092;13.916;2024-03-29T19:54:23;97217.22;;;11.37;65.40
27864;BME280;15980;51.092;13.916;2024-03-29T20:04:23;97220.19;;;11.14;64.93
27864;BME280;15980;51.092;13.916;2024-03-29T20:14:23;97218.09;;;11.00;64.93
27864;BME280;15980;51.092;13.916;2024-03-29T20:24:23;97205.13;;;10.94;66.86
27864;BME280;15980;51.092;13.916;2024-03-29T20:34:24;97204.06;;;11.09;70.14
27864;BME280;15980;51.092;13.916;2024-03-29T20:44:24;97201.06;;;11.83;72.69
27864;BME280;15980;51.092;13.916;2024-03-29T20:54:24;97199.28;;;12.23;72.46
27864;BME280;15980;51.092;13.916;2024-03-29T21:04:24;97193.06;;;12.47;72.19
27864;BME280;15980;51.092;13.916;2024-03-29T21:14:25;97198.63;;;12.62;71.88
27864;BME280;15980;51.092;13.916;2024-03-29T21:24:25;97206.09;;;12.65;71.69
27864;BME280;15980;51.092;13.916;2024-03-29T21:34:25;97208.47;;;12.73;71.43
27864;BME280;15980;51.092;13.916;2024-03-29T21:44:26;97219.09;;;12.68;71.65
27864;BME280;15980;51.092;13.916;2024-03-29T21:54:26;97217.88;;;12.62;71.86
27864;BME280;15980;51.092;13.916;2024-03-29T22:04:26;97222.16;;;12.52;72.43
27864;BME280;15980;51.092;13.916;2024-03-29T22:14:27;97213.91;;;12.55;72.35
27864;BME280;15980;51.092;13.916;2024-03-29T22:24:27;97207.22;;;12.53;72.84
27864;BME280;15980;51.092;13.916;2024-03-29T22:34:27;97190.72;;;12.56;72.77
27864;BME280;15980;51.092;13.916;2024-03-29T22:44:28;97189.22;;;12.70;72.43
27864;BME280;15980;51.092;13.916;2024-03-29T22:54:28;97197.47;;;12.70;72.72
27864;BME280;15980;51.092;13.916;2024-03-29T23:04:28;97204.94;;;12.73;72.85
27864;BME280;15980;51.092;13.916;2024-03-29T23:14:28;97202.19;;;12.69;72.74
27864;BME280;15980;51.092;13.916;2024-03-29T23:24:29;97201.41;;;12.72;72.95
27864;BME280;15980;51.092;13.916;2024-03-29T23:34:29;97196.69;;;12.80;72.61
27864;BME280;15980;51.092;13.916;2024-03-29T23:44:29;97195.88;;;12.65;72.94
27864;BME280;15980;51.092;13.916;2024-03-29T23:54:30;97200.94;;;12.52;73.69
